logo
Rechercher aéroport 
image banner adimage banner adimage banner ad
image banner ad

CL25 - 7R Ranch

Situé à Cuyama, United States

ICAO - CL25, IATA -

Données fournies par Airmate  

Information générale

Coordonnées: N34°56'8" W119°27'6"
Élévation : 3176 feet MSL.
Variation magnétique : 14° East
Voir autres Aéroports à California

Données opérationnelles

Special qualification required
Heure actuelle UTC:
Heure actuelle locale:
Météo à : KBFL - Meadows Field ( 66 km )
METAR: KBFL 261554Z 14004KT 6SM HZ CLR 21/12 A2996 RMK AO2 SLP138 T02110117
TAF: KBFL 261120Z 2612/2712 00000KT P6SM SKC FM262300 VRB06KT P6SM FEW250
Voir NOTAMs / SUP AIP / TFR affectant cet aéroport [VIEW]
Fréquences de communication: [VIEW]

Pistes:

Identifiant RWYQFULongueur (ft)Largeur (ft)SurfaceLDA (ft)
11235040GRASS
29235040GRASS

Coordonnées de l'aéroport

Adresse: Cuyama United States

Vue satellite de CL25